Flight Track Log - Related Links

Times and Time Zones

All times are in EDT time to prevent confusion due to time zone crossing. See the AWE754 flight status page for this flight to view local times or setup timezone preferences in your user account.

Time Position Orientation Groundspeed Altitude Reporting Facility
EDT Latitude Longitude Course Direction KTS MPH feet Rate Location/Type
Thu 06:41:00 PM 39.7834 -74.6999 75° East  Level FlightAware Approximate
Thu 06:42:00 PM 39.8000 -74.5180 90° East  Level FlightAware Approximate
Thu 06:43:00 PM 39.8167 -74.3398 90° East  Level FlightAware Approximate
Thu 06:44:00 PM 39.8167 -74.1552 90° East  Level FlightAware Approximate
Thu 06:45:00 PM 39.8000 -73.9740 90° East  Level FlightAware Approximate
Thu 06:46:00 PM 39.8000 -73.7894 90° East  Level FlightAware Approximate
Thu 06:47:00 PM 39.8335 -73.6329 57° Northeast  Level FlightAware Approximate
Thu 06:48:00 PM 39.9227 -73.4920 46° Northeast  Level FlightAware Approximate
Thu 06:49:00 PM 40.0294 -73.3708 37° Northeast  Level FlightAware Approximate
Thu 06:50:00 PM 40.1390 -73.2536 46° Northeast  Level FlightAware Approximate
Thu 06:51:00 PM 40.2414 -73.1253 37° Northeast  Level FlightAware Approximate
Thu 06:52:00 PM 40.3448 -72.9982 44° Northeast  Level FlightAware Approximate
Thu 06:53:00 PM 40.4475 -72.8698 44° Northeast  Level FlightAware Approximate
Thu 06:54:00 PM 40.5495 -72.7423 43° Northeast  Level FlightAware Approximate
Thu 06:55:00 PM 40.6591 -72.6242 37° Northeast  Level FlightAware Approximate
Thu 06:56:00 PM 40.7026 -72.4552 80° East  Level FlightAware Approximate
Thu 06:57:00 PM 40.7269 -72.2709 80° East  Level FlightAware Approximate
Thu 06:58:00 PM 40.7508 -72.0863 80° East  Level FlightAware Approximate
Thu 06:59:00 PM 40.7745 -71.9017 80° East  Level FlightAware Approximate
Thu 07:00:00 PM 40.7979 -71.7169 80° East  Level FlightAware Approximate
Thu 07:01:00 PM 40.8217 -71.5322 79° East  Level FlightAware Approximate
Thu 07:02:00 PM 40.8481 -71.3481 79° East  Level FlightAware Approximate
Thu 07:03:00 PM 40.8743 -71.1637 79° East  Level FlightAware Approximate
Thu 07:04:00 PM 40.9001 -70.9793 79° East  Level FlightAware Approximate
Thu 07:05:00 PM 40.9257 -70.7946 80° East  Level FlightAware Approximate
Thu 07:06:00 PM 40.9510 -70.6099 80° East  Level FlightAware Approximate
Thu 07:07:00 PM 40.9760 -70.4250 80° East  Level FlightAware Approximate
Thu 07:08:00 PM 41.0007 -70.2400 80° East  Level FlightAware Approximate
Thu 07:09:00 PM 41.0251 -70.0548 80° East  Level FlightAware Approximate
Thu 07:10:00 PM 41.0492 -69.8695 80° East  Level FlightAware Approximate
Thu 07:11:00 PM 41.0895 -69.6935 53° Northeast  Level FlightAware Approximate
Thu 07:12:00 PM 41.1752 -69.5435 53° Northeast  Level FlightAware Approximate
Thu 07:13:00 PM 41.2610 -69.3934 53° Northeast  Level FlightAware Approximate
Thu 07:14:00 PM 41.3475 -69.2438 51° Northeast  Level FlightAware Approximate
Thu 07:15:00 PM 41.4375 -69.0976 51° Northeast  Level FlightAware Approximate
Thu 07:16:00 PM 41.5252 -68.9489 52° Northeast  Level FlightAware Approximate
Thu 07:17:00 PM 41.6118 -68.7988 52° Northeast  Level FlightAware Approximate
Thu 07:18:00 PM 41.6982 -68.6482 52° Northeast  Level FlightAware Approximate
Thu 07:19:00 PM 41.7845 -68.4973 53° Northeast  Level FlightAware Approximate
Thu 07:20:00 PM 41.8705 -68.3459 53° Northeast  Level FlightAware Approximate
Thu 07:21:00 PM 41.9563 -68.1942 53° Northeast  Level FlightAware Approximate
Thu 07:22:00 PM 42.0419 -68.0420 53° Northeast  Level FlightAware Approximate
Thu 07:23:00 PM 42.1273 -67.8894 53° Northeast  Level FlightAware Approximate
Thu 07:24:00 PM 42.2125 -67.7364 53° Northeast  Level FlightAware Approximate
Thu 07:25:00 PM 42.2975 -67.5830 53° Northeast  Level FlightAware Approximate
Thu 07:26:00 PM 42.3823 -67.4292 53° Northeast  Level FlightAware Approximate
Thu 07:27:00 PM 42.4669 -67.2750 53° Northeast  Level FlightAware Approximate
Thu 07:28:00 PM 42.5513 -67.1204 53° Northeast  Level FlightAware Approximate
Thu 07:29:00 PM 42.6308 -66.9614 64° Northeast  Level FlightAware Approximate
Thu 07:30:00 PM 42.6936 -66.7885 64° Northeast  Level FlightAware Approximate
Thu 07:31:00 PM 42.7562 -66.6152 64° Northeast  Level FlightAware Approximate
Thu 07:32:00 PM 42.8186 -66.4416 64° Northeast  Level FlightAware Approximate
Thu 07:33:00 PM 42.8807 -66.2677 64° Northeast  Level FlightAware Approximate
Thu 07:34:00 PM 42.9425 -66.0934 64° Northeast  Level FlightAware Approximate
Thu 07:35:00 PM 43.0040 -65.9187 64° Northeast  Level FlightAware Approximate
Thu 07:36:00 PM 43.0653 -65.7438 64° Northeast  Level FlightAware Approximate
Thu 07:37:00 PM 43.1264 -65.5684 64° Northeast  Level FlightAware Approximate
Thu 07:38:00 PM 43.1871 -65.3927 65° Northeast  Level FlightAware Approximate
Thu 07:39:00 PM 43.2476 -65.2167 65° Northeast  Level FlightAware Approximate
Thu 07:40:00 PM 43.3078 -65.0403 65° Northeast  Level FlightAware Approximate
Thu 07:41:00 PM 43.3677 -64.8636 65° Northeast  Level FlightAware Approximate
Thu 07:42:00 PM 43.4274 -64.6865 65° Northeast  Level FlightAware Approximate
Thu 07:43:00 PM 43.4868 -64.5090 65° Northeast  Level FlightAware Approximate
Thu 07:44:00 PM 43.5459 -64.3312 65° Northeast  Level FlightAware Approximate
Thu 07:45:00 PM 43.6048 -64.1531 65° Northeast  Level FlightAware Approximate
Thu 07:46:00 PM 43.6633 -63.9746 66° East  Level FlightAware Approximate
Thu 07:47:00 PM 43.7216 -63.7958 66° East  Level FlightAware Approximate
Thu 07:48:00 PM 43.7796 -63.6166 66° East  Level FlightAware Approximate
Thu 07:49:00 PM 43.8374 -63.4371 66° East  Level FlightAware Approximate
Thu 07:50:00 PM 43.8948 -63.2572 66° East  Level FlightAware Approximate
Thu 07:51:00 PM 43.9520 -63.0770 66° East  Level FlightAware Approximate
Thu 07:52:00 PM 44.0089 -62.8964 66° East  Level FlightAware Approximate
Thu 07:53:00 PM 44.0654 -62.7155 66° East  Level FlightAware Approximate
Thu 07:54:00 PM 44.1218 -62.5343 67° East  Level FlightAware Approximate
Thu 07:55:00 PM 44.1778 -62.3527 67° East  Level FlightAware Approximate
Thu 07:56:00 PM 44.2335 -62.1707 67° East  Level FlightAware Approximate
Thu 07:57:00 PM 44.2900 -61.9891 66° East  Level FlightAware Approximate
Thu 07:58:00 PM 44.3467 -61.8074 66° East  Level FlightAware Approximate
Thu 07:59:00 PM 44.4031 -61.6253 67° East  Level FlightAware Approximate
Thu 08:00:00 PM 44.4592 -61.4429 67° East  Level FlightAware Approximate
Thu 08:01:00 PM 44.5151 -61.2601 67° East  Level FlightAware Approximate
Thu 08:02:00 PM 44.5696 -61.0764 68° East  Level FlightAware Approximate
Thu 08:03:00 PM 44.6234 -60.8921 68° East  Level FlightAware Approximate
Thu 08:04:00 PM 44.6769 -60.7075 68° East  Level FlightAware Approximate
Thu 08:05:00 PM 44.7301 -60.5225 68° East  Level FlightAware Approximate
Thu 08:06:00 PM 44.7831 -60.3372 68° East  Level FlightAware Approximate
Thu 08:07:00 PM 44.8357 -60.1515 68° East  Level FlightAware Approximate
Thu 08:08:00 PM 44.8880 -59.9655 68° East  Level FlightAware Approximate
Thu 08:09:00 PM 44.9400 -59.7792 68° East  Level FlightAware Approximate
Thu 08:10:00 PM 44.9917 -59.5925 69° East  Level FlightAware Approximate
Thu 08:11:00 PM 45.0431 -59.4055 69° East  Level FlightAware Approximate
Thu 08:12:00 PM 45.0942 -59.2182 69° East  Level FlightAware Approximate
Thu 08:13:00 PM 45.1450 -59.0305 69° East  Level FlightAware Approximate
Thu 08:14:00 PM 45.1954 -58.8425 69° East  Level FlightAware Approximate
Thu 08:15:00 PM 45.2456 -58.6541 69° East  Level FlightAware Approximate
Thu 08:16:00 PM 45.2955 -58.4654 69° East  Level FlightAware Approximate
Thu 08:17:00 PM 45.3450 -58.2764 69° East  Level FlightAware Approximate
Thu 08:18:00 PM 45.3942 -58.0871 70° East  Level FlightAware Approximate
Thu 08:19:00 PM 45.4432 -57.8974 70° East  Level FlightAware Approximate
Thu 08:20:00 PM 45.4918 -57.7074 70° East  Level FlightAware Approximate
Thu 08:21:00 PM 45.5401 -57.5171 70° East  Level FlightAware Approximate
Thu 08:22:00 PM 45.5880 -57.3264 70° East  Level FlightAware Approximate
Thu 08:23:00 PM 45.6357 -57.1355 70° East  Level FlightAware Approximate
Thu 08:24:00 PM 45.6830 -56.9442 70° East  Level FlightAware Approximate
Thu 08:25:00 PM 45.7300 -56.7525 71° East  Level FlightAware Approximate
Thu 08:26:00 PM 45.7767 -56.5606 71° East  Level FlightAware Approximate
Thu 08:27:00 PM 45.8229 -56.3682 71° East  Level FlightAware Approximate
Thu 08:28:00 PM 45.8686 -56.1755 71° East  Level FlightAware Approximate
Thu 08:29:00 PM 45.9141 -55.9825 71° East  Level FlightAware Approximate
Thu 08:30:00 PM 45.9592 -55.7891 71° East  Level FlightAware Approximate
Thu 08:31:00 PM 46.0040 -55.5955 72° East  Level FlightAware Approximate
Thu 08:32:00 PM 46.0485 -55.4015 72° East  Level FlightAware Approximate
Thu 08:33:00 PM 46.0926 -55.2072 72° East  Level FlightAware Approximate
Thu 08:34:00 PM 46.1364 -55.0126 72° East  Level FlightAware Approximate
Thu 08:35:00 PM 46.1799 -54.8177 72° East  Level FlightAware Approximate
Thu 08:36:00 PM 46.2231 -54.6225 72° East  Level FlightAware Approximate
Thu 08:37:00 PM 46.2659 -54.4270 72° East  Level FlightAware Approximate
Thu 08:38:00 PM 46.3084 -54.2311 73° East  Level FlightAware Approximate
Thu 08:39:00 PM 46.3505 -54.0350 73° East  Level FlightAware Approximate
Thu 08:40:00 PM 46.3923 -53.8386 73° East  Level FlightAware Approximate
Thu 08:41:00 PM 46.4338 -53.6418 73° East  Level FlightAware Approximate
Thu 08:42:00 PM 46.4749 -53.4448 73° East  Level FlightAware Approximate
Thu 08:43:00 PM 46.5157 -53.2475 73° East  Level FlightAware Approximate
Thu 08:44:00 PM 46.5562 -53.0499 73° East  Level FlightAware Approximate
Thu 08:45:00 PM 46.5963 -52.8520 73° East  Level FlightAware Approximate
Thu 08:46:00 PM 46.6361 -52.6538 74° East  Level FlightAware Approximate
Thu 08:47:00 PM 46.6786 -52.4568 68° East  Level FlightAware Approximate
Thu 08:48:00 PM 46.7311 -52.2647 68° East  Level FlightAware Approximate
Thu 08:49:00 PM 46.7834 -52.0722 68° East  Level FlightAware Approximate
Thu 08:50:00 PM 46.8353 -51.8793 68° East  Level FlightAware Approximate
Thu 08:51:00 PM 46.8869 -51.6861 69° East  Level FlightAware Approximate
Thu 08:52:00 PM 46.9381 -51.4925 69° East  Level FlightAware Approximate
Thu 08:53:00 PM 46.9891 -51.2986 69° East  Level FlightAware Approximate
Thu 08:54:00 PM 47.0397 -51.1042 69° East  Level FlightAware Approximate
Thu 08:55:00 PM 47.0908 -50.9100 69° East  Level FlightAware Approximate
Thu 08:56:00 PM 47.1424 -50.7158 69° East  Level FlightAware Approximate
Thu 08:57:00 PM 47.1937 -50.5213 69° East  Level FlightAware Approximate
Thu 08:58:00 PM 47.2446 -50.3265 69° East  Level FlightAware Approximate
Thu 08:59:00 PM 47.2953 -50.1312 69° East  Level FlightAware Approximate
Thu 09:00:00 PM 47.3452 -49.9353 70° East  Level FlightAware Approximate
Thu 09:01:00 PM 47.3935 -49.7384 70° East  Level FlightAware Approximate
Thu 09:02:00 PM 47.4414 -49.5412 70° East  Level FlightAware Approximate
Thu 09:03:00 PM 47.4890 -49.3435 70° East  Level FlightAware Approximate
Thu 09:04:00 PM 47.5363 -49.1455 70° East  Level FlightAware Approximate
Thu 09:05:00 PM 47.5832 -48.9472 71° East  Level FlightAware Approximate
Thu 09:06:00 PM 47.6298 -48.7485 71° East  Level FlightAware Approximate
Thu 09:07:00 PM 47.6769 -48.5499 70° East  Level FlightAware Approximate
Thu 09:08:00 PM 47.7238 -48.3510 71° East  Level FlightAware Approximate
Thu 09:09:00 PM 47.7703 -48.1517 71° East  Level FlightAware Approximate
Thu 09:10:00 PM 47.8165 -47.9521 71° East  Level FlightAware Approximate
Thu 09:11:00 PM 47.8623 -47.7521 71° East  Level FlightAware Approximate
Thu 09:12:00 PM 47.9078 -47.5518 71° East  Level FlightAware Approximate
Thu 09:13:00 PM 47.9529 -47.3511 71° East  Level FlightAware Approximate
Thu 09:14:00 PM 47.9977 -47.1501 72° East  Level FlightAware Approximate
Thu 09:15:00 PM 48.0421 -46.9487 72° East  Level FlightAware Approximate
Thu 09:16:00 PM 48.0862 -46.7470 72° East  Level FlightAware Approximate
Thu 09:17:00 PM 48.1299 -46.5449 72° East  Level FlightAware Approximate
Thu 09:18:00 PM 48.1733 -46.3425 72° East  Level FlightAware Approximate
Thu 09:19:00 PM 48.2163 -46.1397 72° East  Level FlightAware Approximate
Thu 09:20:00 PM 48.2589 -45.9366 72° East  Level FlightAware Approximate
Thu 09:21:00 PM 48.3012 -45.7332 73° East  Level FlightAware Approximate
Thu 09:22:00 PM 48.3431 -45.5294 73° East  Level FlightAware Approximate
Thu 09:23:00 PM 48.3847 -45.3253 73° East  Level FlightAware Approximate
Thu 09:24:00 PM 48.4259 -45.1209 73° East  Level FlightAware Approximate
Thu 09:25:00 PM 48.4668 -44.9161 74° East  Level FlightAware Approximate
Thu 09:26:00 PM 48.5057 -44.7103 74° East  Level FlightAware Approximate
Thu 09:27:00 PM 48.5443 -44.5042 74° East  Level FlightAware Approximate
Thu 09:28:00 PM 48.5825 -44.2979 74° East  Level FlightAware Approximate
Thu 09:29:00 PM 48.6204 -44.0911 74° East  Level FlightAware Approximate
Thu 09:30:00 PM 48.6578 -43.8841 75° East  Level FlightAware Approximate
Thu 09:31:00 PM 48.6949 -43.6768 75° East  Level FlightAware Approximate
Thu 09:32:00 PM 48.7317 -43.4692 75° East  Level FlightAware Approximate
Thu 09:33:00 PM 48.7680 -43.2612 75° East  Level FlightAware Approximate
Thu 09:34:00 PM 48.8040 -43.0530 75° East  Level FlightAware Approximate
Thu 09:35:00 PM 48.8396 -42.8445 75° East  Level FlightAware Approximate
Thu 09:36:00 PM 48.8749 -42.6357 76° East  Level FlightAware Approximate
Thu 09:37:00 PM 48.9097 -42.4266 76° East  Level FlightAware Approximate
Thu 09:38:00 PM 48.9446 -42.2174 75° East  Level FlightAware Approximate
Thu 09:39:00 PM 48.9801 -42.0082 75° East  Level FlightAware Approximate
Thu 09:40:00 PM 49.0153 -41.7988 76° East  Level FlightAware Approximate
Thu 09:41:00 PM 49.0500 -41.5890 76° East  Level FlightAware Approximate
Thu 09:42:00 PM 49.0844 -41.3790 76° East  Level FlightAware Approximate
Thu 09:43:00 PM 49.1184 -41.1687 76° East  Level FlightAware Approximate
Thu 09:44:00 PM 49.1520 -40.9581 76° East  Level FlightAware Approximate
Thu 09:45:00 PM 49.1853 -40.7472 76° East  Level FlightAware Approximate
Thu 09:46:00 PM 49.2181 -40.5360 77° East  Level FlightAware Approximate
Thu 09:47:00 PM 49.2506 -40.3246 77° East  Level FlightAware Approximate
Thu 09:48:00 PM 49.2826 -40.1128 77° East  Level FlightAware Approximate
Thu 09:49:00 PM 49.3143 -39.9008 77° East  Level FlightAware Approximate
Thu 09:50:00 PM 49.3456 -39.6885 77° East  Level FlightAware Approximate
Thu 09:51:00 PM 49.3765 -39.4760 77° East  Level FlightAware Approximate
Thu 09:52:00 PM 49.4071 -39.2632 77° East  Level FlightAware Approximate
Thu 09:53:00 PM 49.4372 -39.0501 78° East  Level FlightAware Approximate
Thu 09:54:00 PM 49.4669 -38.8368 78° East  Level FlightAware Approximate
Thu 09:55:00 PM 49.4963 -38.6232 78° East  Level FlightAware Approximate
Thu 09:56:00 PM 49.5252 -38.4094 78° East  Level FlightAware Approximate
Thu 09:57:00 PM 49.5538 -38.1953 78° East  Level FlightAware Approximate
Thu 09:58:00 PM 49.5819 -37.9809 78° East  Level FlightAware Approximate
Thu 09:59:00 PM 49.6097 -37.7663 79° East  Level FlightAware Approximate
Thu 10:00:00 PM 49.6371 -37.5515 79° East  Level FlightAware Approximate
Thu 10:01:00 PM 49.6640 -37.3364 79° East  Level FlightAware Approximate
Thu 10:02:00 PM 49.6906 -37.1211 79° East  Level FlightAware Approximate
Thu 10:03:00 PM 49.7168 -36.9056 79° East  Level FlightAware Approximate
Thu 10:04:00 PM 49.7425 -36.6898 79° East  Level FlightAware Approximate
Thu 10:05:00 PM 49.7679 -36.4738 80° East  Level FlightAware Approximate
Thu 10:06:00 PM 49.7929 -36.2576 80° East  Level FlightAware Approximate
Thu 10:07:00 PM 49.8174 -36.0411 80° East  Level FlightAware Approximate
Thu 10:08:00 PM 49.8416 -35.8245 80° East  Level FlightAware Approximate
Thu 10:09:00 PM 49.8653 -35.6076 80° East  Level FlightAware Approximate
Thu 10:10:00 PM 49.8887 -35.3905 80° East  Level FlightAware Approximate
Thu 10:11:00 PM 49.9116 -35.1732 81° East  Level FlightAware Approximate
Thu 10:12:00 PM 49.9342 -34.9557 81° East  Level FlightAware Approximate
Thu 10:13:00 PM 49.9563 -34.7380 81° East  Level FlightAware Approximate
Thu 10:14:00 PM 49.9780 -34.5201 81° East  Level FlightAware Approximate
Thu 10:15:00 PM 49.9993 -34.3020 81° East  Level FlightAware Approximate
Thu 10:16:00 PM 50.0202 -34.0837 81° East  Level FlightAware Approximate
Thu 10:17:00 PM 50.0407 -33.8652 82° East  Level FlightAware Approximate
Thu 10:18:00 PM 50.0608 -33.6466 82° East  Level FlightAware Approximate
Thu 10:19:00 PM 50.0805 -33.4277 82° East  Level FlightAware Approximate
Thu 10:20:00 PM 50.0998 -33.2087 82° East  Level FlightAware Approximate
Thu 10:21:00 PM 50.1186 -32.9895 82° East  Level FlightAware Approximate
Thu 10:22:00 PM 50.1371 -32.7701 82° East  Level FlightAware Approximate
Thu 10:23:00 PM 50.1551 -32.5506 83° East  Level FlightAware Approximate
Thu 10:24:00 PM 50.1727 -32.3309 83° East  Level FlightAware Approximate
Thu 10:25:00 PM 50.1899 -32.1110 83° East  Level FlightAware Approximate
Thu 10:26:00 PM 50.2067 -31.8910 83° East  Level FlightAware Approximate
Thu 10:27:00 PM 50.2230 -31.6708 83° East  Level FlightAware Approximate
Thu 10:28:00 PM 50.2390 -31.4505 83° East  Level FlightAware Approximate
Thu 10:29:00 PM 50.2545 -31.2300 84° East  Level FlightAware Approximate
Thu 10:30:00 PM 50.2696 -31.0094 84° East  Level FlightAware Approximate
Thu 10:31:00 PM 50.2843 -30.7887 84° East  Level FlightAware Approximate
Thu 10:32:00 PM 50.2986 -30.5678 84° East  Level FlightAware Approximate
Thu 10:33:00 PM 50.3125 -30.3468 84° East  Level FlightAware Approximate
Thu 10:34:00 PM 50.3259 -30.1257 84° East  Level FlightAware Approximate
Thu 10:35:00 PM 50.3387 -29.9044 85° East  Level FlightAware Approximate
Thu 10:36:00 PM 50.3509 -29.6829 85° East  Level FlightAware Approximate
Thu 10:37:00 PM 50.3627 -29.4614 85° East  Level FlightAware Approximate
Thu 10:38:00 PM 50.3740 -29.2398 85° East  Level FlightAware Approximate
Thu 10:39:00 PM 50.3850 -29.0180 85° East  Level FlightAware Approximate
Thu 10:40:00 PM 50.3955 -28.7961 86° East  Level FlightAware Approximate
Thu 10:41:00 PM 50.4055 -28.5742 86° East  Level FlightAware Approximate
Thu 10:42:00 PM 50.4152 -28.3521 86° East  Level FlightAware Approximate
Thu 10:43:00 PM 50.4244 -28.1300 86° East  Level FlightAware Approximate
Thu 10:44:00 PM 50.4333 -27.9078 86° East  Level FlightAware Approximate
Thu 10:45:00 PM 50.4417 -27.6855 87° East  Level FlightAware Approximate
Thu 10:46:00 PM 50.4496 -27.4631 87° East  Level FlightAware Approximate
Thu 10:47:00 PM 50.4572 -27.2407 87° East  Level FlightAware Approximate
Thu 10:48:00 PM 50.4643 -27.0181 87° East  Level FlightAware Approximate
Thu 10:49:00 PM 50.4710 -26.7956 87° East  Level FlightAware Approximate
Thu 10:50:00 PM 50.4772 -26.5729 87° East  Level FlightAware Approximate
Thu 10:51:00 PM 50.4831 -26.3502 88° East  Level FlightAware Approximate
Thu 10:52:00 PM 50.4885 -26.1275 88° East  Level FlightAware Approximate
Thu 10:53:00 PM 50.4935 -25.9047 88° East  Level FlightAware Approximate
Thu 10:54:00 PM 50.4981 -25.6818 88° East  Level FlightAware Approximate
Thu 10:55:00 PM 50.5022 -25.4589 88° East  Level FlightAware Approximate
Thu 10:56:00 PM 50.5059 -25.2360 88° East  Level FlightAware Approximate
Thu 10:57:00 PM 50.5092 -25.0130 89° East  Level FlightAware Approximate
Thu 10:58:00 PM 50.5121 -24.7901 89° East  Level FlightAware Approximate
Thu 10:59:00 PM 50.5145 -24.5670 89° East  Level FlightAware Approximate
Thu 11:00:00 PM 50.5165 -24.3440 89° East  Level FlightAware Approximate
Thu 11:01:00 PM 50.5181 -24.1210 89° East  Level FlightAware Approximate
Thu 11:02:00 PM 50.5193 -23.8979 89° East  Level FlightAware Approximate
Thu 11:03:00 PM 50.5200 -23.6748 90° East  Level FlightAware Approximate
Thu 11:04:00 PM 50.5203 -23.4517 90° East  Level FlightAware Approximate
Thu 11:05:00 PM 50.5202 -23.2286 90° East  Level FlightAware Approximate
Thu 11:06:00 PM 50.5197 -23.0056 90° East  Level FlightAware Approximate
Thu 11:07:00 PM 50.5187 -22.7825 90° East  Level FlightAware Approximate
Thu 11:08:00 PM 50.5173 -22.5594 90° East  Level FlightAware Approximate
Thu 11:09:00 PM 50.5155 -22.3364 91° East  Level FlightAware Approximate
Thu 11:10:00 PM 50.5132 -22.1134 91° East  Level FlightAware Approximate
Thu 11:11:00 PM 50.5106 -21.8904 91° East  Level FlightAware Approximate
Thu 11:12:00 PM 50.5075 -21.6674 91° East  Level FlightAware Approximate
Thu 11:13:00 PM 50.5039 -21.4445 91° East  Level FlightAware Approximate
Thu 11:14:00 PM 50.5000 -21.2216 92° East  Level FlightAware Approximate
Thu 11:15:00 PM 50.4956 -20.9987 92° East  Level FlightAware Approximate
Thu 11:16:00 PM 50.4908 -20.7759 92° East  Level FlightAware Approximate
Thu 11:17:00 PM 50.4856 -20.5531 92° East  Level FlightAware Approximate
Thu 11:18:00 PM 50.4799 -20.3304 92° East  Level FlightAware Approximate
Thu 11:19:00 PM 50.4738 -20.1077 92° East  Level FlightAware Approximate
Thu 11:20:00 PM 50.4673 -19.8851 93° East  Level FlightAware Approximate
Thu 11:21:00 PM 50.4604 -19.6625 93° East  Level FlightAware Approximate
Thu 11:22:00 PM 50.4531 -19.4401 93° East  Level FlightAware Approximate
Thu 11:23:00 PM 50.4453 -19.2176 93° East  Level FlightAware Approximate
Thu 11:24:00 PM 50.4371 -18.9953 93° East  Level FlightAware Approximate
Thu 11:25:00 PM 50.4285 -18.7731 93° East  Level FlightAware Approximate
Thu 11:26:00 PM 50.4194 -18.5509 94° East  Level FlightAware Approximate
Thu 11:27:00 PM 50.4100 -18.3288 94° East  Level FlightAware Approximate
Thu 11:28:00 PM 50.4001 -18.1068 94° East  Level FlightAware Approximate
Thu 11:29:00 PM 50.3898 -17.8849 94° East  Level FlightAware Approximate
Thu 11:30:00 PM 50.3790 -17.6631 94° East  Level FlightAware Approximate
Thu 11:31:00 PM 50.3679 -17.4414 94° East  Level FlightAware Approximate
Thu 11:32:00 PM 50.3563 -17.2198 95° East  Level FlightAware Approximate
Thu 11:33:00 PM 50.3443 -16.9983 95° East  Level FlightAware Approximate
Thu 11:34:00 PM 50.3319 -16.7770 95° East  Level FlightAware Approximate
Thu 11:35:00 PM 50.3190 -16.5557 95° East  Level FlightAware Approximate
Thu 11:36:00 PM 50.3058 -16.3346 95° East  Level FlightAware Approximate
Thu 11:37:00 PM 50.2921 -16.1136 95° East  Level FlightAware Approximate
Thu 11:38:00 PM 50.2780 -15.8927 96° East  Level FlightAware Approximate
Thu 11:39:00 PM 50.2635 -15.6719 96° East  Level FlightAware Approximate
Thu 11:40:00 PM 50.2486 -15.4513 96° East  Level FlightAware Approximate
Thu 11:41:00 PM 50.2332 -15.2309 96° East  Level FlightAware Approximate
Thu 11:42:00 PM 50.2174 -15.0105 96° East  Level FlightAware Approximate
Thu 11:43:00 PM 50.2016 -14.7903 96° East  Level FlightAware Approximate
Thu 11:44:00 PM 50.1853 -14.5702 96° East  Level FlightAware Approximate
Thu 11:45:00 PM 50.1686 -14.3503 97° East  Level FlightAware Approximate
Thu 11:46:00 PM 50.1516 -14.1305 97° East  Level FlightAware Approximate
Thu 11:47:00 PM 50.1340 -13.9109 97° East  Level FlightAware Approximate
Thu 11:48:00 PM 50.1161 -13.6914 97° East  Level FlightAware Approximate
Thu 11:49:00 PM 50.0978 -13.4721 97° East  Level FlightAware Approximate
Thu 11:50:00 PM 50.0791 -13.2530 98° East  Level FlightAware Approximate
Thu 11:51:00 PM 50.0599 -13.0340 98° East  Level FlightAware Approximate
Thu 11:52:00 PM 50.0404 -12.8152 98° East  Level FlightAware Approximate
Thu 11:53:00 PM 50.0204 -12.5966 98° East  Level FlightAware Approximate
Thu 11:54:00 PM 50.0000 -12.3782 98° East  Level FlightAware Approximate
Thu 11:55:00 PM 49.9792 -12.1600 98° East  Level FlightAware Approximate
Thu 11:56:00 PM 49.9580 -11.9420 99° East  Level FlightAware Approximate
Thu 11:57:00 PM 49.9364 -11.7241 99° East  Level FlightAware Approximate
Thu 11:58:00 PM 49.9144 -11.5065 99° East  Level FlightAware Approximate
Thu 11:59:00 PM 49.8919 -11.2891 99° East  Level FlightAware Approximate
Fri 12:00:00 AM 49.8691 -11.0718 99° East  Level FlightAware Approximate
Fri 12:01:00 AM 49.8459 -10.8548 99° East  Level FlightAware Approximate
Fri 12:02:00 AM 49.8222 -10.6380 100° East  Level FlightAware Approximate
Fri 12:03:00 AM 49.7982 -10.4213 100° East  Level FlightAware Approximate
Fri 12:04:00 AM 49.7737 -10.2050 100° East  Level FlightAware Approximate
Fri 12:05:00 AM 49.7489 -9.9888 100° East  Level FlightAware Approximate
Fri 12:06:00 AM 49.7236 -9.7728 100° East  Level FlightAware Approximate
Fri 12:07:00 AM 49.6979 -9.5571 100° East  Level FlightAware Approximate
Fri 12:08:00 AM 49.6719 -9.3416 101° East  Level FlightAware Approximate
Fri 12:09:00 AM 49.6454 -9.1264 101° East  Level FlightAware Approximate
Fri 12:10:00 AM 49.6186 -8.9114 101° East  Level FlightAware Approximate
Fri 12:11:00 AM 49.5913 -8.6966 101° East  Level FlightAware Approximate
Fri 12:12:00 AM 49.5637 -8.4820 101° East  Level FlightAware Approximate
Fri 12:13:00 AM 49.5356 -8.2677 101° East  Level FlightAware Approximate
Fri 12:14:00 AM 49.5072 -8.0537 101° East  Level FlightAware Approximate
Fri 12:15:00 AM 49.4951 -7.8366 93° East  Level FlightAware Approximate
Fri 12:16:00 AM 49.4883 -7.6185 93° East  Level FlightAware Approximate
Fri 12:17:00 AM 49.4810 -7.4004 93° East  Level FlightAware Approximate
Fri 12:18:00 AM 49.4734 -7.1825 93° East  Level FlightAware Approximate
Fri 12:19:00 AM 49.4656 -6.9645 93° East  Level FlightAware Approximate
Fri 12:20:00 AM 49.4591 -6.7465 93° East  Level FlightAware Approximate
Fri 12:21:00 AM 49.4522 -6.5286 93° East  Level FlightAware Approximate
Fri 12:22:00 AM 49.4448 -6.3107 93° East  Level FlightAware Approximate
Fri 12:23:00 AM 49.4371 -6.0929 93° East  Level FlightAware Approximate
Fri 12:24:00 AM 49.4289 -5.8752 93° East  Level FlightAware Approximate
Fri 12:25:00 AM 49.4203 -5.6575 93° East  Level FlightAware Approximate
Fri 12:26:00 AM 49.4113 -5.4400 94° East  Level FlightAware Approximate
Fri 12:27:00 AM 49.4019 -5.2225 94° East  Level FlightAware Approximate
Fri 12:28:00 AM 49.3921 -5.0051 94° East  Level FlightAware Approximate
Fri 12:29:00 AM 49.3819 -4.7877 94° East  Level FlightAware Approximate
Fri 12:30:00 AM 49.3713 -4.5705 94° East  Level FlightAware Approximate
Fri 12:31:00 AM 49.3603 -4.3534 94° East  Level FlightAware Approximate
Fri 12:32:00 AM 49.3488 -4.1363 95° East  Level FlightAware Approximate
Fri 12:33:00 AM 49.3370 -3.9194 95° East  Level FlightAware Approximate
Fri 12:34:00 AM 49.3247 -3.7025 95° East  Level FlightAware Approximate
Fri 12:35:00 AM 49.3121 -3.4858 95° East  Level FlightAware Approximate
Fri 12:36:00 AM 49.2990 -3.2692 95° East  Level FlightAware Approximate
Fri 12:37:00 AM 49.2856 -3.0527 95° East  Level FlightAware Approximate
Fri 12:38:00 AM 49.2717 -2.8364 96° East  Level FlightAware Approximate
Fri 12:39:00 AM 49.2575 -2.6201 96° East  Level FlightAware Approximate
Fri 12:40:00 AM 49.2428 -2.4040 96° East  Level FlightAware Approximate
Fri 12:41:00 AM 49.2277 -2.1880 96° East  Level FlightAware Approximate
Fri 12:42:00 AM 49.2196 -1.9719 86° East  Level FlightAware Approximate
Fri 12:43:00 AM 49.2297 -1.7553 86° East  Level FlightAware Approximate
Fri 12:44:00 AM 49.2393 -1.5386 86° East  Level FlightAware Approximate
Fri 12:45:00 AM 49.2486 -1.3218 86° East  Level FlightAware Approximate
Fri 12:46:00 AM 49.2574 -1.1049 86° East  Level FlightAware Approximate
Fri 12:47:00 AM 49.2659 -0.8879 87° East  Level FlightAware Approximate
Fri 12:48:00 AM 49.2718 -0.6709 85° East  Level FlightAware Approximate
Fri 12:49:00 AM 49.2831 -0.4542 85° East  Level FlightAware Approximate
Fri 12:50:00 AM 49.2833 -0.2368 90° East  Level FlightAware Approximate
Fri 12:51:00 AM 49.2916 -0.0199 85° East  Level FlightAware Approximate
Fri 12:52:00 AM 49.3000 0.1972 90° East  Level FlightAware Approximate
Fri 12:53:00 AM 49.2888 0.4133 99° East  Level FlightAware Approximate
Fri 12:54:00 AM 49.2672 0.6282 99° East  Level FlightAware Approximate
Fri 12:55:00 AM 49.2382 0.8409 102° East  Level FlightAware Approximate
Fri 12:56:00 AM 49.2086 1.0533 102° East  Level FlightAware Approximate
Fri 12:57:00 AM 49.1787 1.2655 102° East  Level FlightAware Approximate
Fri 12:58:00 AM 49.1497 1.4778 101° East  Level FlightAware Approximate
Fri 12:59:00 AM 49.1193 1.6895 103° East  Level FlightAware Approximate
Fri 01:00:00 AM 49.0860 1.9001 104° East  Level FlightAware Approximate
Fri 01:01:00 AM 49.0573 2.1121 101° East  Level FlightAware Approximate
Fri 01:02:00 AM 49.0290 2.3182 101° East  Level FlightAware Approximate
Fri 01:03:00 AM 49.0005 2.5300 102° East  Level FlightAware Approximate
Fri 01:04:00 AM 49.0000 2.5333 102° East  Level FlightAware Approximate
Fri 01:05:00 AM 49.0128 2.5500 102° East  Level Estimated
Fri 01:06:00 AM 49.0128 2.5500 102° East  Level Estimated
Fri 01:07:00 AM 49.0128 2.5500 102° East  Level Estimated
Fri 01:08:00 AM 49.0128 2.5500 102° East  Level Estimated
Fri 01:09:00 AM 49.0128 2.5500 102° East  Level Estimated
Fri 01:10:00 AM 49.0128 2.5500 102° East  Level Estimated
Fri 01:11:00 AM 49.0128 2.5500 102° East  Level Estimated
Fri 01:12:00 AM 49.0128 2.5500 102° East  Level Estimated
Fri 01:13:00 AM 49.0128 2.5500 102° East  Level Estimated
Fri 01:14:00 AM 49.0128 2.5500 102° East  Level Estimated
Fri 01:15:00 AM 49.0128 2.5500 102° East  Level Estimated
Fri 01:16:00 AM 49.0128 2.5500 102° East  Level Estimated
Fri 01:17:00 AM 49.0128 2.5500 102° East  Level Estimated
Fri 01:18:00 AM 49.0128 2.5500 102° East  Level Estimated
Fri 01:19:00 AM 49.0128 2.5500 102° East  Level Estimated

Login

Don't have an account? Register now (free) for customized features, flight alerts, and more!